Etusivu
METAR-TAF:

METAR-TAF

Lentoasemat :

Pardubice, Tšekki

Leveyspiiri: 50-00-48N, Pituuspiiri: 15-44-19E, korkeus merenpinnasta: 226 m

Tämänhetkinen sää

Tämä raportti tehtiin 31 minuuttia sitten, kello 07.00 UTC
Tuuli 1 kn eri suunnista
Lämpötila 1°C
Kosteus 64%
Ilmanpaine 1015 hPa
Näkyvyys 10 km tai enemmän
ei pilviä alle 1500 m:ssä eikä cumulonimbus-pilviä

METAR: LKPD 020700Z VRB01KT CAVOK 01/M05 Q1015 NOSIG RMK BLU BLU

Aika: 09:31 (07:31 UTC)

Sääennuste

Tämä raportti tehtiin 2 tuntia ja 31 minuuttia sitten, kello 05.00 UTC
Ennuste voimassa 02. päivästä klo 06 UTC - 03. päivään klo 06 UTC
Tuuli 2 kn eri suunnista
Näkyvyys 10 km tai enemmän
ei pilviä alle 1500 m:ssä eikä cumulonimbus-pilviä
Tulossa
02. päivästä klo 08 UTC - 02. päivään klo 10 UTC
Tuuli 8 kn lännestä/luoteesta

TAF: LKPD 020500Z 0206/0306 VRB02KT CAVOK BECMG 0208/0210 30008KT

Säähavainnot ja -ennusteet yli 4000 lentoasemalta (METAR- ja TAF-raportit).

Käytössä olevat sääasemat on merkitty karttaan keltaisilla ja punaisilla pisteillä.

Aseta hiiri pisteen päälle nähdäksesi sääaseman nimen.

Klikkaa sitten nähdäksesi säähavainnot ja -ennusteet.

Kartan vaihtaminen: klikkaa mustalla rastilla varustettuja vihreitä pisteitä, niin voit zoomata sisään; viivalla varustettua vihreää pistettä, niin voit zoomata ulos tai vihreitä nuolia, niin pääset viereisille kartoille.


METAR-TAF: